sensor_id;sensor_type;location;lat;lon;timestamp;pressure;altitude;pressure_sealevel;temperature;humidity
51067;BME280;37112;45.892;-123.962;2023-05-12T00:00:54;101892.70;;;16.28;63.93
51067;BME280;37112;45.892;-123.962;2023-05-12T00:03:29;101894.65;;;16.24;62.94
51067;BME280;37112;45.892;-123.962;2023-05-12T00:05:53;101890.13;;;16.20;63.79
51067;BME280;37112;45.892;-123.962;2023-05-12T00:08:36;101893.04;;;16.24;64.51
51067;BME280;37112;45.892;-123.962;2023-05-12T00:11:10;101894.39;;;16.30;64.83
51067;BME280;37112;45.892;-123.962;2023-05-12T00:13:41;101894.52;;;16.43;64.47
51067;BME280;37112;45.892;-123.962;2023-05-12T00:16:25;101890.73;;;16.48;63.80
51067;BME280;37112;45.892;-123.962;2023-05-12T00:18:53;101890.11;;;16.47;63.91
51067;BME280;37112;45.892;-123.962;2023-05-12T00:21:28;101887.35;;;16.45;63.81
51067;BME280;37112;45.892;-123.962;2023-05-12T00:24:06;101892.58;;;16.44;64.24
51067;BME280;37112;45.892;-123.962;2023-05-12T00:26:33;101891.39;;;16.51;64.16
51067;BME280;37112;45.892;-123.962;2023-05-12T00:29:08;101893.44;;;16.55;63.61
51067;BME280;37112;45.892;-123.962;2023-05-12T00:31:42;101893.94;;;16.48;63.06
51067;BME280;37112;45.892;-123.962;2023-05-12T00:34:16;101901.33;;;16.45;64.09
51067;BME280;37112;45.892;-123.962;2023-05-12T00:36:51;101902.58;;;16.45;64.61
51067;BME280;37112;45.892;-123.962;2023-05-12T00:39:25;101906.05;;;16.39;64.89
51067;BME280;37112;45.892;-123.962;2023-05-12T00:42:01;101905.23;;;16.36;64.97
51067;BME280;37112;45.892;-123.962;2023-05-12T00:44:25;101907.73;;;16.28;65.15
51067;BME280;37112;45.892;-123.962;2023-05-12T00:47:00;101908.91;;;16.20;65.69
51067;BME280;37112;45.892;-123.962;2023-05-12T00:49:23;101908.83;;;16.13;65.80
51067;BME280;37112;45.892;-123.962;2023-05-12T00:52:00;101909.05;;;16.10;65.58
51067;BME280;37112;45.892;-123.962;2023-05-12T00:54:27;101903.78;;;15.99;65.59
51067;BME280;37112;45.892;-123.962;2023-05-12T00:56:55;101902.52;;;15.92;66.37
51067;BME280;37112;45.892;-123.962;2023-05-12T00:59:20;101904.71;;;15.86;66.63
51067;BME280;37112;45.892;-123.962;2023-05-12T01:01:53;101904.05;;;15.82;67.08
51067;BME280;37112;45.892;-123.962;2023-05-12T01:04:27;101902.07;;;15.80;67.11
51067;BME280;37112;45.892;-123.962;2023-05-12T01:07:18;101901.30;;;15.76;67.57
51067;BME280;37112;45.892;-123.962;2023-05-12T01:09:42;101896.88;;;15.75;67.62
51067;BME280;37112;45.892;-123.962;2023-05-12T01:12:09;101897.50;;;15.71;67.70
51067;BME280;37112;45.892;-123.962;2023-05-12T01:14:54;101897.08;;;15.65;68.00
51067;BME280;37112;45.892;-123.962;2023-05-12T01:17:22;101898.19;;;15.61;68.16
51067;BME280;37112;45.892;-123.962;2023-05-12T01:20:02;101900.16;;;15.53;68.16
51067;BME280;37112;45.892;-123.962;2023-05-12T01:22:37;101903.52;;;15.49;68.71
51067;BME280;37112;45.892;-123.962;2023-05-12T01:25:12;101898.55;;;15.46;68.70
51067;BME280;37112;45.892;-123.962;2023-05-12T01:27:41;101897.05;;;15.42;68.90
51067;BME280;37112;45.892;-123.962;2023-05-12T01:30:09;101899.20;;;15.34;69.62
51067;BME280;37112;45.892;-123.962;2023-05-12T01:32:38;101902.57;;;15.34;69.80
51067;BME280;37112;45.892;-123.962;2023-05-12T01:35:01;101902.86;;;15.38;70.11
51067;BME280;37112;45.892;-123.962;2023-05-12T01:37:31;101902.17;;;15.37;70.18
51067;BME280;37112;45.892;-123.962;2023-05-12T01:39:57;101897.64;;;15.33;70.42
51067;BME280;37112;45.892;-123.962;2023-05-12T01:42:31;101893.70;;;15.28;70.62
51067;BME280;37112;45.892;-123.962;2023-05-12T01:45:05;101892.59;;;15.20;70.42
51067;BME280;37112;45.892;-123.962;2023-05-12T01:47:40;101895.27;;;15.18;70.58
51067;BME280;37112;45.892;-123.962;2023-05-12T01:50:03;101899.94;;;15.15;70.59
51067;BME280;37112;45.892;-123.962;2023-05-12T01:52:24;101905.40;;;15.14;70.75
51067;BME280;37112;45.892;-123.962;2023-05-12T01:54:53;101901.95;;;15.09;70.48
51067;BME280;37112;45.892;-123.962;2023-05-12T01:57:26;101894.10;;;15.09;70.83
51067;BME280;37112;45.892;-123.962;2023-05-12T02:00:01;101888.23;;;15.11;70.68
51067;BME280;37112;45.892;-123.962;2023-05-12T02:02:23;101893.33;;;15.18;70.61
51067;BME280;37112;45.892;-123.962;2023-05-12T02:04:57;101892.23;;;15.21;70.44
51067;BME280;37112;45.892;-123.962;2023-05-12T02:07:31;101892.20;;;15.23;70.34
51067;BME280;37112;45.892;-123.962;2023-05-12T02:10:09;101898.50;;;15.28;70.10
51067;BME280;37112;45.892;-123.962;2023-05-12T02:12:42;101896.85;;;15.26;69.91
51067;BME280;37112;45.892;-123.962;2023-05-12T02:15:08;101892.08;;;15.23;69.69
51067;BME280;37112;45.892;-123.962;2023-05-12T02:17:40;101889.13;;;15.19;69.81
51067;BME280;37112;45.892;-123.962;2023-05-12T02:20:11;101883.05;;;15.19;69.93
51067;BME280;37112;45.892;-123.962;2023-05-12T02:22:38;101888.89;;;15.17;69.81
51067;BME280;37112;45.892;-123.962;2023-05-12T02:25:07;101895.52;;;15.17;69.96
51067;BME280;37112;45.892;-123.962;2023-05-12T02:27:40;101900.70;;;15.15;69.81
51067;BME280;37112;45.892;-123.962;2023-05-12T02:30:10;101900.85;;;15.10;69.78
51067;BME280;37112;45.892;-123.962;2023-05-12T02:32:44;101905.65;;;15.08;69.82
51067;BME280;37112;45.892;-123.962;2023-05-12T02:34:59;101901.60;;;15.04;69.85
51067;BME280;37112;45.892;-123.962;2023-05-12T02:37:13;101906.11;;;15.00;69.78
51067;BME280;37112;45.892;-123.962;2023-05-12T02:39:29;101902.98;;;14.96;69.67
51067;BME280;37112;45.892;-123.962;2023-05-12T02:42:03;101898.69;;;14.94;69.81
51067;BME280;37112;45.892;-123.962;2023-05-12T02:44:22;101898.65;;;14.89;69.44
51067;BME280;37112;45.892;-123.962;2023-05-12T02:46:56;101894.59;;;14.86;68.84
51067;BME280;37112;45.892;-123.962;2023-05-12T02:49:28;101891.52;;;14.84;68.18
51067;BME280;37112;45.892;-123.962;2023-05-12T02:52:02;101888.36;;;14.85;67.76
51067;BME280;37112;45.892;-123.962;2023-05-12T02:54:40;101886.31;;;14.87;67.78
51067;BME280;37112;45.892;-123.962;2023-05-12T02:57:09;101888.74;;;14.82;66.96
51067;BME280;37112;45.892;-123.962;2023-05-12T02:59:33;101889.69;;;14.79;67.12
51067;BME280;37112;45.892;-123.962;2023-05-12T03:02:03;101889.06;;;14.75;67.50
51067;BME280;37112;45.892;-123.962;2023-05-12T03:04:23;101887.37;;;14.71;67.66
51067;BME280;37112;45.892;-123.962;2023-05-12T03:07:01;101891.16;;;14.65;67.80
51067;BME280;37112;45.892;-123.962;2023-05-12T03:09:37;101893.63;;;14.60;67.96
51067;BME280;37112;45.892;-123.962;2023-05-12T03:12:04;101896.75;;;14.53;68.18
51067;BME280;37112;45.892;-123.962;2023-05-12T03:14:39;101900.52;;;14.47;68.41
51067;BME280;37112;45.892;-123.962;2023-05-12T03:17:06;101906.83;;;14.43;68.46
51067;BME280;37112;45.892;-123.962;2023-05-12T03:19:46;101904.90;;;14.40;68.55
51067;BME280;37112;45.892;-123.962;2023-05-12T03:22:21;101906.83;;;14.38;68.53
51067;BME280;37112;45.892;-123.962;2023-05-12T03:24:44;101911.40;;;14.34;68.61
51067;BME280;37112;45.892;-123.962;2023-05-12T03:27:13;101913.63;;;14.30;68.63
51067;BME280;37112;45.892;-123.962;2023-05-12T03:29:33;101918.17;;;14.28;68.79
51067;BME280;37112;45.892;-123.962;2023-05-12T03:32:08;101917.86;;;14.28;68.89
51067;BME280;37112;45.892;-123.962;2023-05-12T03:34:42;101922.77;;;14.29;69.05
51067;BME280;37112;45.892;-123.962;2023-05-12T03:37:17;101920.27;;;14.32;69.18
51067;BME280;37112;45.892;-123.962;2023-05-12T03:39:52;101926.11;;;14.33;69.04
51067;BME280;37112;45.892;-123.962;2023-05-12T03:42:13;101925.95;;;14.35;69.15
51067;BME280;37112;45.892;-123.962;2023-05-12T03:44:36;101933.73;;;14.36;69.08
51067;BME280;37112;45.892;-123.962;2023-05-12T03:46:56;101932.38;;;14.35;68.94
51067;BME280;37112;45.892;-123.962;2023-05-12T03:49:22;101933.70;;;14.31;68.68
51067;BME280;37112;45.892;-123.962;2023-05-12T03:51:49;101937.52;;;14.28;68.47
51067;BME280;37112;45.892;-123.962;2023-05-12T03:54:18;101942.95;;;14.23;68.59
51067;BME280;37112;45.892;-123.962;2023-05-12T03:56:46;101945.59;;;14.21;68.59
51067;BME280;37112;45.892;-123.962;2023-05-12T03:59:05;101949.26;;;14.19;68.62
51067;BME280;37112;45.892;-123.962;2023-05-12T04:01:25;101955.59;;;14.15;68.46
51067;BME280;37112;45.892;-123.962;2023-05-12T04:04:02;101954.83;;;14.08;68.30
51067;BME280;37112;45.892;-123.962;2023-05-12T04:06:36;101955.02;;;13.99;68.29
51067;BME280;37112;45.892;-123.962;2023-05-12T04:09:10;101957.70;;;13.90;68.33
51067;BME280;37112;45.892;-123.962;2023-05-12T04:11:45;101961.69;;;13.83;68.43
51067;BME280;37112;45.892;-123.962;2023-05-12T04:14:18;101966.10;;;13.76;68.35
51067;BME280;37112;45.892;-123.962;2023-05-12T04:17:09;101965.17;;;13.67;68.57
51067;BME280;37112;45.892;-123.962;2023-05-12T04:19:41;101969.74;;;13.63;68.69
51067;BME280;37112;45.892;-123.962;2023-05-12T04:22:17;101968.06;;;13.55;68.67
51067;BME280;37112;45.892;-123.962;2023-05-12T04:24:41;101965.02;;;13.50;68.80
51067;BME280;37112;45.892;-123.962;2023-05-12T04:27:19;101971.23;;;13.44;68.82
51067;BME280;37112;45.892;-123.962;2023-05-12T04:29:53;101975.75;;;13.40;68.95
51067;BME280;37112;45.892;-123.962;2023-05-12T04:32:27;101980.70;;;13.35;69.04
51067;BME280;37112;45.892;-123.962;2023-05-12T04:34:49;101982.23;;;13.30;69.10
51067;BME280;37112;45.892;-123.962;2023-05-12T04:37:16;101979.77;;;13.24;69.06
51067;BME280;37112;45.892;-123.962;2023-05-12T04:39:50;101983.35;;;13.16;69.09
51067;BME280;37112;45.892;-123.962;2023-05-12T04:42:10;101982.15;;;13.09;69.14
51067;BME280;37112;45.892;-123.962;2023-05-12T04:44:43;101983.89;;;13.04;69.42
51067;BME280;37112;45.892;-123.962;2023-05-12T04:47:05;101989.91;;;12.98;69.55
51067;BME280;37112;45.892;-123.962;2023-05-12T04:49:23;101991.08;;;12.94;69.61
51067;BME280;37112;45.892;-123.962;2023-05-12T04:51:49;101992.11;;;12.88;69.73
51067;BME280;37112;45.892;-123.962;2023-05-12T04:54:28;101991.28;;;12.84;69.94
51067;BME280;37112;45.892;-123.962;2023-05-12T04:56:56;101991.40;;;12.79;69.90
51067;BME280;37112;45.892;-123.962;2023-05-12T04:59:18;101994.17;;;12.73;69.87
51067;BME280;37112;45.892;-123.962;2023-05-12T05:01:45;101994.04;;;12.67;69.91
51067;BME280;37112;45.892;-123.962;2023-05-12T05:04:06;101992.95;;;12.61;70.01
51067;BME280;37112;45.892;-123.962;2023-05-12T05:06:47;101991.77;;;12.56;70.19
51067;BME280;37112;45.892;-123.962;2023-05-12T05:09:20;101989.05;;;12.51;70.38
51067;BME280;37112;45.892;-123.962;2023-05-12T05:11:54;101993.49;;;12.48;70.57
51067;BME280;37112;45.892;-123.962;2023-05-12T05:14:26;101993.59;;;12.43;70.50
51067;BME280;37112;45.892;-123.962;2023-05-12T05:16:46;101997.55;;;12.39;70.64
51067;BME280;37112;45.892;-123.962;2023-05-12T05:19:13;102001.38;;;12.34;70.75
51067;BME280;37112;45.892;-123.962;2023-05-12T05:21:48;102001.52;;;12.28;70.88
51067;BME280;37112;45.892;-123.962;2023-05-12T05:26:45;102004.34;;;12.15;71.06
51067;BME280;37112;45.892;-123.962;2023-05-12T05:29:41;102008.30;;;12.08;71.11
51067;BME280;37112;45.892;-123.962;2023-05-12T05:31:59;102012.38;;;12.05;71.26
51067;BME280;37112;45.892;-123.962;2023-05-12T05:34:33;102008.46;;;12.02;71.38
51067;BME280;37112;45.892;-123.962;2023-05-12T05:36:52;102007.48;;;12.00;71.53
51067;BME280;37112;45.892;-123.962;2023-05-12T05:39:19;102008.83;;;11.98;71.54
51067;BME280;37112;45.892;-123.962;2023-05-12T05:41:42;102005.86;;;11.93;71.39
51067;BME280;37112;45.892;-123.962;2023-05-12T05:44:15;102006.30;;;11.88;71.37
51067;BME280;37112;45.892;-123.962;2023-05-12T05:46:40;102000.95;;;11.82;71.47
51067;BME280;37112;45.892;-123.962;2023-05-12T05:49:12;101993.42;;;11.76;71.59
51067;BME280;37112;45.892;-123.962;2023-05-12T05:51:38;101989.14;;;11.69;71.67
51067;BME280;37112;45.892;-123.962;2023-05-12T05:54:12;101982.67;;;11.63;71.79
51067;BME280;37112;45.892;-123.962;2023-05-12T05:56:45;101979.51;;;11.56;71.81
51067;BME280;37112;45.892;-123.962;2023-05-12T05:59:20;101980.64;;;11.51;71.92
51067;BME280;37112;45.892;-123.962;2023-05-12T06:01:54;101981.39;;;11.47;72.14
51067;BME280;37112;45.892;-123.962;2023-05-12T06:04:28;101979.77;;;11.44;72.26
51067;BME280;37112;45.892;-123.962;2023-05-12T06:07:03;101982.00;;;11.42;72.26
51067;BME280;37112;45.892;-123.962;2023-05-12T06:09:36;101982.15;;;11.39;72.32
51067;BME280;37112;45.892;-123.962;2023-05-12T06:12:11;101980.33;;;11.36;72.32
51067;BME280;37112;45.892;-123.962;2023-05-12T06:14:35;101983.69;;;11.33;72.34
51067;BME280;37112;45.892;-123.962;2023-05-12T06:17:10;101981.59;;;11.29;72.49
51067;BME280;37112;45.892;-123.962;2023-05-12T06:19:43;101984.88;;;11.27;72.57
51067;BME280;37112;45.892;-123.962;2023-05-12T06:22:10;101982.51;;;11.25;72.68
51067;BME280;37112;45.892;-123.962;2023-05-12T06:24:44;101985.52;;;11.22;72.64
51067;BME280;37112;45.892;-123.962;2023-05-12T06:27:17;101988.71;;;11.18;72.62
51067;BME280;37112;45.892;-123.962;2023-05-12T06:29:52;101991.31;;;11.16;72.92
51067;BME280;37112;45.892;-123.962;2023-05-12T06:32:18;101989.23;;;11.15;73.03
51067;BME280;37112;45.892;-123.962;2023-05-12T06:34:52;101991.06;;;11.14;73.12
51067;BME280;37112;45.892;-123.962;2023-05-12T06:37:26;101989.37;;;11.12;73.18
51067;BME280;37112;45.892;-123.962;2023-05-12T06:39:45;101991.30;;;11.09;73.15
51067;BME280;37112;45.892;-123.962;2023-05-12T06:42:19;101991.10;;;11.06;73.19
51067;BME280;37112;45.892;-123.962;2023-05-12T06:44:42;101990.30;;;11.04;73.30
51067;BME280;37112;45.892;-123.962;2023-05-12T06:47:05;101988.77;;;11.03;73.38
51067;BME280;37112;45.892;-123.962;2023-05-12T06:49:40;101991.54;;;11.01;73.51
51067;BME280;37112;45.892;-123.962;2023-05-12T06:52:10;101996.54;;;11.00;73.62
51067;BME280;37112;45.892;-123.962;2023-05-12T06:54:44;101998.75;;;10.99;73.67
51067;BME280;37112;45.892;-123.962;2023-05-12T06:57:12;102005.63;;;10.96;73.61
51067;BME280;37112;45.892;-123.962;2023-05-12T06:59:40;102002.64;;;10.92;73.47
51067;BME280;37112;45.892;-123.962;2023-05-12T07:02:08;102003.54;;;10.87;73.52
51067;BME280;37112;45.892;-123.962;2023-05-12T07:04:42;102003.40;;;10.83;73.56
51067;BME280;37112;45.892;-123.962;2023-05-12T07:07:16;102001.30;;;10.79;73.52
51067;BME280;37112;45.892;-123.962;2023-05-12T07:10:03;101998.33;;;10.74;73.52
51067;BME280;37112;45.892;-123.962;2023-05-12T07:12:37;101994.23;;;10.71;73.61
51067;BME280;37112;45.892;-123.962;2023-05-12T07:15:07;101993.38;;;10.66;73.56
51067;BME280;37112;45.892;-123.962;2023-05-12T07:17:40;101992.92;;;10.61;73.56
51067;BME280;37112;45.892;-123.962;2023-05-12T07:20:09;101996.02;;;10.56;73.60
51067;BME280;37112;45.892;-123.962;2023-05-12T07:22:36;101996.59;;;10.51;73.68
51067;BME280;37112;45.892;-123.962;2023-05-12T07:25:12;101996.27;;;10.47;73.87
51067;BME280;37112;45.892;-123.962;2023-05-12T07:27:47;101995.76;;;10.42;73.85
51067;BME280;37112;45.892;-123.962;2023-05-12T07:30:14;101995.79;;;10.38;73.97
51067;BME280;37112;45.892;-123.962;2023-05-12T07:32:41;101997.02;;;10.34;74.04
51067;BME280;37112;45.892;-123.962;2023-05-12T07:35:17;101998.64;;;10.30;74.13
51067;BME280;37112;45.892;-123.962;2023-05-12T07:37:50;101995.91;;;10.27;74.19
51067;BME280;37112;45.892;-123.962;2023-05-12T07:40:25;101998.44;;;10.22;74.27
51067;BME280;37112;45.892;-123.962;2023-05-12T07:42:59;102000.67;;;10.20;74.34
51067;BME280;37112;45.892;-123.962;2023-05-12T07:45:34;102000.47;;;10.16;74.42
51067;BME280;37112;45.892;-123.962;2023-05-12T07:48:02;102003.97;;;10.14;74.45
51067;BME280;37112;45.892;-123.962;2023-05-12T07:50:28;102009.58;;;10.11;74.56
51067;BME280;37112;45.892;-123.962;2023-05-12T07:53:01;102011.27;;;10.09;74.52
51067;BME280;37112;45.892;-123.962;2023-05-12T07:55:36;102012.86;;;10.05;74.60
51067;BME280;37112;45.892;-123.962;2023-05-12T07:58:10;102016.52;;;10.02;74.69
51067;BME280;37112;45.892;-123.962;2023-05-12T08:00:44;102014.21;;;9.99;74.73
51067;BME280;37112;45.892;-123.962;2023-05-12T08:03:12;102014.13;;;9.97;74.93
51067;BME280;37112;45.892;-123.962;2023-05-12T08:05:45;102017.70;;;9.96;75.05
51067;BME280;37112;45.892;-123.962;2023-05-12T08:08:20;102017.03;;;9.95;75.06
51067;BME280;37112;45.892;-123.962;2023-05-12T08:10:54;102016.10;;;9.92;74.99
51067;BME280;37112;45.892;-123.962;2023-05-12T08:13:18;102016.58;;;9.90;75.10
51067;BME280;37112;45.892;-123.962;2023-05-12T08:15:53;102015.91;;;9.88;75.12
51067;BME280;37112;45.892;-123.962;2023-05-12T08:18:26;102014.94;;;9.86;75.14
51067;BME280;37112;45.892;-123.962;2023-05-12T08:21:04;102012.61;;;9.83;75.10
51067;BME280;37112;45.892;-123.962;2023-05-12T08:23:26;102015.55;;;9.81;75.10
51067;BME280;37112;45.892;-123.962;2023-05-12T08:26:14;102012.80;;;9.78;75.33
51067;BME280;37112;45.892;-123.962;2023-05-12T08:28:48;102012.01;;;9.76;75.36
51067;BME280;37112;45.892;-123.962;2023-05-12T08:31:23;102014.60;;;9.74;75.35
51067;BME280;37112;45.892;-123.962;2023-05-12T08:33:57;102015.53;;;9.73;75.50
51067;BME280;37112;45.892;-123.962;2023-05-12T08:36:32;102019.64;;;9.72;75.48
51067;BME280;37112;45.892;-123.962;2023-05-12T08:39:05;102024.86;;;9.70;75.63
51067;BME280;37112;45.892;-123.962;2023-05-12T08:41:40;102028.14;;;9.68;75.65
51067;BME280;37112;45.892;-123.962;2023-05-12T08:44:09;102025.77;;;9.66;75.63
51067;BME280;37112;45.892;-123.962;2023-05-12T08:46:37;102028.48;;;9.64;75.63
51067;BME280;37112;45.892;-123.962;2023-05-12T08:49:12;102028.63;;;9.61;75.56
51067;BME280;37112;45.892;-123.962;2023-05-12T08:51:47;102031.04;;;9.59;75.60
51067;BME280;37112;45.892;-123.962;2023-05-12T08:54:22;102037.87;;;9.56;75.65
51067;BME280;37112;45.892;-123.962;2023-05-12T08:56:51;102037.91;;;9.55;75.70
51067;BME280;37112;45.892;-123.962;2023-05-12T08:59:29;102038.73;;;9.53;75.85
51067;BME280;37112;45.892;-123.962;2023-05-12T09:02:03;102042.58;;;9.50;75.84
51067;BME280;37112;45.892;-123.962;2023-05-12T09:04:31;102044.73;;;9.48;76.04
51067;BME280;37112;45.892;-123.962;2023-05-12T09:06:59;102040.23;;;9.46;75.94
51067;BME280;37112;45.892;-123.962;2023-05-12T09:09:34;102042.69;;;9.43;76.03
51067;BME280;37112;45.892;-123.962;2023-05-12T09:12:14;102044.06;;;9.39;76.09
51067;BME280;37112;45.892;-123.962;2023-05-12T09:14:38;102046.16;;;9.37;76.23
51067;BME280;37112;45.892;-123.962;2023-05-12T09:17:13;102046.39;;;9.35;76.26
51067;BME280;37112;45.892;-123.962;2023-05-12T09:19:47;102044.16;;;9.33;76.29
51067;BME280;37112;45.892;-123.962;2023-05-12T09:22:14;102040.67;;;9.32;76.36
51067;BME280;37112;45.892;-123.962;2023-05-12T09:24:50;102041.63;;;9.30;76.44
51067;BME280;37112;45.892;-123.962;2023-05-12T09:27:28;102044.55;;;9.28;76.53
51067;BME280;37112;45.892;-123.962;2023-05-12T09:30:06;102048.84;;;9.28;76.63
51067;BME280;37112;45.892;-123.962;2023-05-12T09:32:42;102052.97;;;9.26;76.71
51067;BME280;37112;45.892;-123.962;2023-05-12T09:35:18;102053.05;;;9.24;76.59
51067;BME280;37112;45.892;-123.962;2023-05-12T09:37:44;102053.33;;;9.21;76.75
51067;BME280;37112;45.892;-123.962;2023-05-12T09:40:18;102055.87;;;9.20;76.85
51067;BME280;37112;45.892;-123.962;2023-05-12T09:42:55;102051.34;;;9.18;76.79
51067;BME280;37112;45.892;-123.962;2023-05-12T09:45:31;102051.02;;;9.17;77.04
51067;BME280;37112;45.892;-123.962;2023-05-12T09:48:13;102050.36;;;9.15;77.14
51067;BME280;37112;45.892;-123.962;2023-05-12T09:50:47;102044.40;;;9.14;77.19
51067;BME280;37112;45.892;-123.962;2023-05-12T09:53:23;102049.14;;;9.11;77.29
51067;BME280;37112;45.892;-123.962;2023-05-12T09:55:57;102051.20;;;9.08;77.22
51067;BME280;37112;45.892;-123.962;2023-05-12T09:58:32;102050.21;;;9.06;77.53
51067;BME280;37112;45.892;-123.962;2023-05-12T10:01:06;102045.89;;;9.04;77.56
51067;BME280;37112;45.892;-123.962;2023-05-12T10:03:43;102048.21;;;9.03;77.64
51067;BME280;37112;45.892;-123.962;2023-05-12T10:06:24;102043.84;;;9.01;77.69
51067;BME280;37112;45.892;-123.962;2023-05-12T10:09:04;102041.56;;;9.01;77.69
51067;BME280;37112;45.892;-123.962;2023-05-12T10:11:39;102042.59;;;9.02;78.00
51067;BME280;37112;45.892;-123.962;2023-05-12T10:14:02;102038.54;;;9.01;78.06
51067;BME280;37112;45.892;-123.962;2023-05-12T10:16:32;102035.71;;;9.01;78.16
51067;BME280;37112;45.892;-123.962;2023-05-12T10:18:59;102030.39;;;9.01;78.26
51067;BME280;37112;45.892;-123.962;2023-05-12T10:21:34;102029.14;;;9.01;78.27
51067;BME280;37112;45.892;-123.962;2023-05-12T10:23:58;102027.91;;;9.01;78.47
51067;BME280;37112;45.892;-123.962;2023-05-12T10:26:33;102030.41;;;9.01;78.41
51067;BME280;37112;45.892;-123.962;2023-05-12T10:29:07;102031.97;;;9.01;78.62
51067;BME280;37112;45.892;-123.962;2023-05-12T10:31:43;102027.17;;;9.02;78.58
51067;BME280;37112;45.892;-123.962;2023-05-12T10:34:20;102026.27;;;9.03;78.75
51067;BME280;37112;45.892;-123.962;2023-05-12T10:36:53;102027.81;;;9.04;78.86
51067;BME280;37112;45.892;-123.962;2023-05-12T10:39:26;102028.51;;;9.04;78.77
51067;BME280;37112;45.892;-123.962;2023-05-12T10:41:49;102029.54;;;9.05;78.84
51067;BME280;37112;45.892;-123.962;2023-05-12T10:44:32;102026.18;;;9.05;78.87
51067;BME280;37112;45.892;-123.962;2023-05-12T10:47:02;102025.13;;;9.05;78.87
51067;BME280;37112;45.892;-123.962;2023-05-12T10:49:45;102026.44;;;9.03;78.82
51067;BME280;37112;45.892;-123.962;2023-05-12T10:52:23;102031.05;;;9.02;78.86
51067;BME280;37112;45.892;-123.962;2023-05-12T10:54:57;102030.73;;;9.02;78.95
51067;BME280;37112;45.892;-123.962;2023-05-12T10:57:31;102028.48;;;9.00;78.90
51067;BME280;37112;45.892;-123.962;2023-05-12T11:00:10;102029.88;;;8.97;78.89
51067;BME280;37112;45.892;-123.962;2023-05-12T11:02:53;102032.43;;;8.94;78.85
51067;BME280;37112;45.892;-123.962;2023-05-12T11:05:35;102032.31;;;8.93;79.02
51067;BME280;37112;45.892;-123.962;2023-05-12T11:08:03;102028.45;;;8.92;79.08
51067;BME280;37112;45.892;-123.962;2023-05-12T11:10:38;102026.00;;;8.91;79.15
51067;BME280;37112;45.892;-123.962;2023-05-12T11:13:13;102029.98;;;8.90;79.08
51067;BME280;37112;45.892;-123.962;2023-05-12T11:15:36;102029.30;;;8.89;79.28
51067;BME280;37112;45.892;-123.962;2023-05-12T11:18:10;102033.02;;;8.89;79.30
51067;BME280;37112;45.892;-123.962;2023-05-12T11:20:37;102035.28;;;8.90;79.52
51067;BME280;37112;45.892;-123.962;2023-05-12T11:23:11;102035.95;;;8.90;79.50
51067;BME280;37112;45.892;-123.962;2023-05-12T11:25:49;102035.77;;;8.91;79.58
51067;BME280;37112;45.892;-123.962;2023-05-12T11:28:23;102036.09;;;8.91;79.51
51067;BME280;37112;45.892;-123.962;2023-05-12T11:30:56;102034.81;;;8.92;79.72
51067;BME280;37112;45.892;-123.962;2023-05-12T11:33:31;102031.29;;;8.92;79.64
51067;BME280;37112;45.892;-123.962;2023-05-12T11:36:08;102032.91;;;8.91;79.68
51067;BME280;37112;45.892;-123.962;2023-05-12T11:38:50;102035.19;;;8.92;79.60
51067;BME280;37112;45.892;-123.962;2023-05-12T11:41:24;102033.45;;;8.91;79.59
51067;BME280;37112;45.892;-123.962;2023-05-12T11:43:59;102034.21;;;8.90;79.62
51067;BME280;37112;45.892;-123.962;2023-05-12T11:46:34;102034.30;;;8.88;79.50
51067;BME280;37112;45.892;-123.962;2023-05-12T11:49:12;102033.33;;;8.85;79.57
51067;BME280;37112;45.892;-123.962;2023-05-12T11:51:46;102033.27;;;8.82;79.44
51067;BME280;37112;45.892;-123.962;2023-05-12T11:54:20;102035.34;;;8.79;79.56
51067;BME280;37112;45.892;-123.962;2023-05-12T11:56:54;102036.46;;;8.78;79.77
51067;BME280;37112;45.892;-123.962;2023-05-12T11:59:32;102039.17;;;8.76;79.71
51067;BME280;37112;45.892;-123.962;2023-05-12T12:02:07;102032.91;;;8.74;79.58
51067;BME280;37112;45.892;-123.962;2023-05-12T12:04:54;102035.06;;;8.73;79.76
51067;BME280;37112;45.892;-123.962;2023-05-12T12:07:35;102035.07;;;8.73;79.85
51067;BME280;37112;45.892;-123.962;2023-05-12T12:10:12;102031.91;;;8.72;79.80
51067;BME280;37112;45.892;-123.962;2023-05-12T12:12:47;102031.98;;;8.70;80.00
51067;BME280;37112;45.892;-123.962;2023-05-12T12:15:21;102033.27;;;8.69;79.93
51067;BME280;37112;45.892;-123.962;2023-05-12T12:17:42;102033.45;;;8.69;79.90
51067;BME280;37112;45.892;-123.962;2023-05-12T12:20:12;102034.55;;;8.68;79.87
51067;BME280;37112;45.892;-123.962;2023-05-12T12:22:48;102034.55;;;8.68;79.87
51067;BME280;37112;45.892;-123.962;2023-05-12T12:25:22;102030.86;;;8.67;79.95
51067;BME280;37112;45.892;-123.962;2023-05-12T12:27:56;102031.27;;;8.65;79.88
51067;BME280;37112;45.892;-123.962;2023-05-12T12:30:33;102031.14;;;8.64;79.76
51067;BME280;37112;45.892;-123.962;2023-05-12T12:33:19;102029.29;;;8.61;79.74
51067;BME280;37112;45.892;-123.962;2023-05-12T12:35:44;102026.00;;;8.59;79.92
51067;BME280;37112;45.892;-123.962;2023-05-12T12:38:18;102025.20;;;8.58;79.87
51067;BME280;37112;45.892;-123.962;2023-05-12T12:40:48;102026.86;;;8.55;79.81
51067;BME280;37112;45.892;-123.962;2023-05-12T12:43:13;102027.98;;;8.54;79.85
51067;BME280;37112;45.892;-123.962;2023-05-12T12:45:40;102030.49;;;8.53;79.96
51067;BME280;37112;45.892;-123.962;2023-05-12T12:48:14;102027.51;;;8.53;80.15